Blanding, UT

4:19 AM MDT on August 29, 2015 (GMT -0600)
USU Eastern Blanding Campus | | Change Station
CLOSE
Current Station
Personal Weather Station
Location: Blanding, UT
Elevation: 6099 ft
Nearby Weather Stations

Elev 6099 ft 37.62 °N, 109.49 °W | Updated 19 seconds ago

Clear
Clear
67.3 °F
Feels Like 67.3 °F
N
2.9
Wind Variable Wind from SE
Gusts 5.0 mph

Today
High -- | Low -- °F
--% Chance of Precip.
Yesterday
High -- | Low -- °F
Precip. -- in
6:45 AM 7:51 PM
Full, 100% visible
Pressure 30.29 in
Visibility 10.0 miles
Clouds Clear
Dew Point 35 °F
Humidity 30%
Rainfall 0.00 in
Snow Depth Not available.
UV 0.0 out of 12
Pollen 8.10 out of 12
Air Quality Not available.
Flu Activity Not available.
METAR KBDG 290955Z AUTO 30005KT 10SM CLR 16/00 A3029 RMK AO1 T01641003
Pressure 30.29 in
Visibility 10.0 miles
Clouds Clear
Dew Point 35 °F
Humidity 30%
Rainfall 0.00 in
Snow Depth Not available.
UV 0.0 out of 12
Pollen 8.10 out of 12
Air Quality Not available.
Flu Activity Not available.
METAR KBDG 290955Z AUTO 30005KT 10SM CLR 16/00 A3029 RMK AO1 T01641003

10-Day Weather Forecast

×

Almanac

Astronomy

Aug. 29, 2015 Rise Set
Actual Time
Civil Twilight
Nautical Twilight
Astronomical Twilight
Moon
Length of Visible Light
Length of Day
Tomorrow will be .
, % of the Moon is Illuminated

Today's Extremes

State Highs State Lows

Community

WunderPhotos

Upload Photos

1,850,633 photos uploaded!

WunderBlogs® & News

Nearby

Air Quality

  Air Quality AQ Index Pollutant
Not available.

Snow Depth

Station Depth Elevation

Earthquake Activity

City Distance Mag. Time & Date
Minimum magnitude displayed is 2.5.

Coastal Water Temperatures

Place Temperature

Stations

Nearby Weather Stations

Station Location Temp. Windchill Dew Point Humidity Wind Precip. Elev Updated Type